Time;durP1;ratioP1;P1;durP2;ratioP2;P2;SDS_P1;SDS_P2;PMS_P1;PMS_P2;Temp;Humidity;BMP_temperature;BMP_pressure;BME280_temperature;BME280_humidity;BME280_pressure;Samples;Min_cycle;Max_cycle;Signal;HPM_P1;HPM_P2
2022/12/03 00:00:15;;;;;;;32.38;13.82;;;;;;;-143.48;71.05;118439.88;5051137;28;20148;-32
2022/12/03 00:02:40;;;;;;;35.20;14.32;;;;;;;-143.48;72.32;118439.88;5035636;28;20025;-31
2022/12/03 00:05:06;;;;;;;35.83;14.48;;;;;;;-143.48;71.71;118439.88;5035924;28;20380;-32
2022/12/03 00:07:31;;;;;;;31.23;13.98;;;;;;;-143.48;71.50;118439.88;5035555;28;20032;-31
2022/12/03 00:09:57;;;;;;;32.55;13.43;;;;;;;-143.48;71.49;118439.88;5035531;28;20104;-31
2022/12/03 00:12:22;;;;;;;34.40;14.88;;;;;;;-143.48;72.15;118439.88;5035494;28;20056;-32
2022/12/03 00:14:47;;;;;;;31.45;13.75;;;;;;;-143.48;72.00;118439.88;5035701;28;20025;-31
2022/12/03 00:17:13;;;;;;;31.23;12.73;;;;;;;-143.48;71.63;118439.88;5035399;28;20025;-31
2022/12/03 00:19:38;;;;;;;29.17;13.50;;;;;;;-143.48;71.18;118439.88;5035595;28;20028;-31
2022/12/03 00:22:03;;;;;;;30.70;13.05;;;;;;;-143.48;71.41;118439.88;5035589;28;20588;-32
2022/12/03 00:24:28;;;;;;;34.33;13.68;;;;;;;-143.48;71.59;118439.88;5050624;28;20037;-32
2022/12/03 00:26:54;;;;;;;30.70;13.40;;;;;;;-143.48;71.21;118439.88;5033834;28;20397;-31
2022/12/03 00:29:19;;;;;;;30.77;13.52;;;;;;;-143.48;71.96;118439.88;5035129;28;20036;-31
2022/12/03 00:31:44;;;;;;;30.00;13.20;;;;;;;-143.48;71.31;118439.88;5035011;28;20049;-31
2022/12/03 00:34:10;;;;;;;32.17;13.32;;;;;;;-143.48;71.20;118439.88;5035659;28;20021;-31
2022/12/03 00:36:35;;;;;;;32.20;13.70;;;;;;;-143.48;71.12;118439.88;5035079;28;20025;-31
2022/12/03 00:39:01;;;;;;;30.83;13.65;;;;;;;-143.48;71.15;118439.88;5035071;28;20081;-31
2022/12/03 00:41:26;;;;;;;27.73;12.75;;;;;;;-143.48;71.18;118439.88;5034943;28;20025;-31
2022/12/03 00:43:56;;;;;;;29.88;13.40;;;;;;;-143.48;71.42;118439.88;5034862;28;20033;-31
2022/12/03 00:46:21;;;;;;;30.65;12.93;;;;;;;-143.48;71.14;118439.88;5035121;28;20032;-31
2022/12/03 00:48:46;;;;;;;33.88;13.93;;;;;;;-143.48;71.27;118439.88;5033683;28;20524;-31
2022/12/03 00:51:12;;;;;;;33.70;13.75;;;;;;;-143.48;71.54;118439.88;5035058;28;20382;-31
2022/12/03 00:53:37;;;;;;;30.42;14.15;;;;;;;-143.48;72.31;118439.88;5033433;28;20067;-32
2022/12/03 00:56:02;;;;;;;38.22;15.00;;;;;;;-143.48;72.58;118439.88;5035028;28;20090;-31
2022/12/03 00:58:28;;;;;;;32.47;13.20;;;;;;;-143.48;71.81;118439.88;5033315;28;20051;-31
2022/12/03 01:00:53;;;;;;;31.17;13.10;;;;;;;-143.48;72.50;118439.88;5034438;28;20022;-31
2022/12/03 01:03:18;;;;;;;31.92;13.02;;;;;;;-143.48;72.32;118439.88;5034079;28;20025;-31
2022/12/03 01:05:43;;;;;;;30.75;13.10;;;;;;;-143.48;72.39;118439.88;5034509;28;20083;-31
2022/12/03 01:08:09;;;;;;;32.60;13.45;;;;;;;-143.48;72.61;118439.88;5034439;28;20491;-31
2022/12/03 01:10:34;;;;;;;33.75;13.55;;;;;;;-143.48;72.01;118439.88;5034573;28;20108;-31
2022/12/03 01:12:59;;;;;;;32.22;13.30;;;;;;;-143.48;72.44;118439.88;5034398;28;20457;-31
2022/12/03 01:15:25;;;;;;;30.48;12.85;;;;;;;-143.48;72.61;118439.88;5034786;28;20093;-31
2022/12/03 01:17:50;;;;;;;34.17;13.60;;;;;;;-143.48;72.08;118439.88;5034183;28;20163;-31
2022/12/03 01:20:15;;;;;;;31.73;13.25;;;;;;;-143.48;72.79;118439.88;5034195;28;20032;-32
2022/12/03 01:22:40;;;;;;;31.48;12.90;;;;;;;-143.48;72.82;118439.88;5034386;28;20025;-32
2022/12/03 01:25:06;;;;;;;32.88;12.75;;;;;;;-143.48;73.06;118439.88;5049485;28;20083;-31
2022/12/03 01:27:31;;;;;;;32.22;13.38;;;;;;;-143.48;73.56;118439.88;5034263;28;20025;-32
2022/12/03 01:29:57;;;;;;;31.90;13.43;;;;;;;-143.48;73.46;118439.88;5033754;28;20520;-32
2022/12/03 01:32:22;;;;;;;33.17;12.70;;;;;;;-143.48;73.37;118439.88;5034214;28;20025;-31
2022/12/03 01:34:52;;;;;;;31.20;13.35;;;;;;;-143.48;73.75;118439.88;5034121;28;20030;-31
2022/12/03 01:37:19;;;;;;;34.75;13.50;;;;;;;-143.48;73.43;118439.88;5033875;28;20026;-31
2022/12/03 01:39:45;;;;;;;37.15;13.65;;;;;;;-143.48;74.38;118439.88;5033851;28;20021;-31
2022/12/03 01:42:15;;;;;;;35.90;12.93;;;;;;;-143.48;73.54;118439.88;5034005;28;20031;-31
2022/12/03 01:44:41;;;;;;;36.53;14.02;;;;;;;-143.48;73.76;118439.88;5033939;28;20025;-31
2022/12/03 01:47:14;;;;;;;37.10;13.88;;;;;;;-143.48;73.55;118439.88;5034224;28;20429;-31
2022/12/03 01:49:44;;;;;;;32.65;13.10;;;;;;;-143.48;73.85;118439.88;5033584;28;20461;-31
2022/12/03 01:52:18;;;;;;;34.28;13.93;;;;;;;-143.48;73.17;118439.88;5034211;28;20120;-31
2022/12/03 01:54:50;;;;;;;35.30;14.10;;;;;;;-143.48;73.32;118439.88;5033757;28;20075;-30
2022/12/03 01:57:21;;;;;;;29.33;13.68;;;;;;;-143.48;73.87;118439.88;5034007;28;20025;-30
2022/12/03 01:59:47;;;;;;;31.42;13.30;;;;;;;-143.48;73.80;118439.88;5032767;28;20021;-31
2022/12/03 02:02:18;;;;;;;33.50;13.63;;;;;;;-143.48;72.82;118439.88;5033453;28;20029;-31
2022/12/03 02:04:44;;;;;;;33.53;14.20;;;;;;;-143.48;74.14;118439.88;5033615;28;20473;-31
2022/12/03 02:07:36;;;;;;;32.50;13.60;;;;;;;-143.48;73.54;118439.88;5033366;28;20060;-31
2022/12/03 02:10:03;;;;;;;33.05;13.23;;;;;;;-143.48;74.17;118439.88;5033116;28;20037;-31
2022/12/03 02:12:37;;;;;;;31.42;13.77;;;;;;;-143.48;73.64;118439.88;5033253;28;20041;-31
2022/12/03 02:15:05;;;;;;;32.80;13.38;;;;;;;-143.48;73.69;118439.88;5033499;28;20048;-31
2022/12/03 02:17:31;;;;;;;31.02;13.75;;;;;;;-143.48;73.48;118439.88;5033385;28;20029;-30
2022/12/03 02:19:57;;;;;;;32.83;14.00;;;;;;;-143.48;74.21;118439.88;5033226;28;20424;-31
2022/12/03 02:22:38;;;;;;;30.52;13.50;;;;;;;-143.48;73.76;118439.88;5031533;28;20033;-30
2022/12/03 02:25:07;;;;;;;31.75;13.43;;;;;;;-143.48;73.75;118439.88;5032801;28;20059;-33
2022/12/03 02:27:33;;;;;;;32.72;13.65;;;;;;;-143.48;73.30;118439.88;5032653;28;20029;-31
2022/12/03 02:29:58;;;;;;;34.83;13.43;;;;;;;-143.48;74.35;118439.88;5031523;28;20032;-31
2022/12/03 02:32:23;;;;;;;31.83;13.32;;;;;;;-143.48;73.93;118439.88;5030963;28;20057;-31
2022/12/03 02:34:50;;;;;;;29.92;13.23;;;;;;;-143.48;73.74;118439.88;5030912;28;20049;-31
2022/12/03 02:37:20;;;;;;;32.53;13.68;;;;;;;-143.48;73.94;118439.88;5031237;28;20076;-31
2022/12/03 02:39:53;;;;;;;34.15;13.50;;;;;;;-143.48;73.76;118439.88;5031011;28;20143;-31
2022/12/03 02:42:35;;;;;;;32.20;13.55;;;;;;;-143.48;73.93;118439.88;5031511;28;20040;-31
2022/12/03 02:45:25;;;;;;;31.65;13.30;;;;;;;-143.48;74.19;118439.88;5046663;28;20079;-30
2022/12/03 02:47:59;;;;;;;27.88;12.65;;;;;;;-143.48;74.70;118439.88;5031618;28;20025;-30
2022/12/03 02:50:29;;;;;;;34.22;13.32;;;;;;;-143.48;74.30;118439.88;5033107;28;20368;-30
2022/12/03 02:52:57;;;;;;;29.80;13.00;;;;;;;-143.48;74.09;118439.88;5048193;28;20460;-31
2022/12/03 02:55:23;;;;;;;30.05;12.50;;;;;;;-143.48;74.03;118439.88;5032890;28;20022;-31
2022/12/03 02:57:50;;;;;;;28.73;13.00;;;;;;;-143.48;73.39;118439.88;5032760;28;20025;-30
2022/12/03 03:00:16;;;;;;;30.38;13.77;;;;;;;-143.48;73.83;118439.88;5031325;28;20028;-31
2022/12/03 03:02:44;;;;;;;31.83;13.45;;;;;;;-143.48;73.82;118439.88;5030785;28;20025;-31
2022/12/03 03:05:10;;;;;;;28.50;13.35;;;;;;;-143.48;74.41;118439.88;5029212;28;20025;-31
2022/12/03 03:07:37;;;;;;;31.08;13.65;;;;;;;-143.48;73.88;118439.88;5029109;28;20026;-31
2022/12/03 03:10:05;;;;;;;31.27;13.43;;;;;;;-143.48;74.80;118439.88;5030449;28;20025;-31
2022/12/03 03:12:32;;;;;;;33.50;13.50;;;;;;;-143.48;73.58;118439.88;5030325;28;20033;-31
2022/12/03 03:14:57;;;;;;;29.45;13.25;;;;;;;-143.48;74.27;118439.88;5029118;28;20022;-31
2022/12/03 03:17:23;;;;;;;33.60;13.75;;;;;;;-143.48;73.58;118439.88;5030335;28;20029;-31
2022/12/03 03:19:48;;;;;;;33.28;13.93;;;;;;;-143.48;74.52;118439.88;5031310;28;20029;-31
2022/12/03 03:22:14;;;;;;;31.13;13.75;;;;;;;-143.48;74.83;118439.88;5031259;28;20032;-31
2022/12/03 03:24:39;;;;;;;29.52;13.20;;;;;;;-143.48;74.32;118439.88;5033659;28;20480;-31
2022/12/03 03:27:05;;;;;;;32.95;14.15;;;;;;;-143.48;75.12;118439.88;5036461;28;20036;-31
2022/12/03 03:29:32;;;;;;;31.73;13.38;;;;;;;-143.48;74.75;118439.88;5036287;28;20449;-30
2022/12/03 03:31:58;;;;;;;32.42;14.07;;;;;;;-143.48;75.51;118439.88;5034934;28;20049;-31
2022/12/03 03:34:24;;;;;;;31.67;13.57;;;;;;;-143.48;75.54;118439.88;5036426;28;20487;-31
2022/12/03 03:36:50;;;;;;;31.33;13.75;;;;;;;-143.48;75.15;118439.88;5036182;28;20025;-31
2022/12/03 03:39:15;;;;;;;32.75;13.55;;;;;;;-143.48;75.30;118439.88;5036405;28;20097;-31
2022/12/03 03:41:43;;;;;;;32.42;14.05;;;;;;;-143.48;74.80;118439.88;5036312;28;20025;-31
2022/12/03 03:44:09;;;;;;;31.08;13.63;;;;;;;-143.48;75.96;118439.88;5036008;28;20484;-31
2022/12/03 03:46:36;;;;;;;34.78;14.15;;;;;;;-143.48;75.80;118439.88;5035970;28;20036;-31
2022/12/03 03:49:03;;;;;;;34.75;14.70;;;;;;;-143.48;75.88;118439.88;5035859;28;20028;-31
2022/12/03 03:51:32;;;;;;;35.17;13.88;;;;;;;-143.48;75.30;118439.88;5034568;28;20365;-31
2022/12/03 03:53:58;;;;;;;35.80;14.60;;;;;;;-143.48;75.65;118439.88;5035810;28;20032;-31
2022/12/03 03:56:24;;;;;;;34.20;13.13;;;;;;;-143.48;76.09;118439.88;5036269;28;20025;-31
2022/12/03 03:58:49;;;;;;;39.28;15.52;;;;;;;-143.48;75.51;118439.88;5032836;28;20325;-31
2022/12/03 04:01:16;;;;;;;35.58;14.57;;;;;;;-143.48;76.18;118439.88;5035089;28;20538;-31
2022/12/03 04:03:41;;;;;;;33.75;14.13;;;;;;;-143.48;75.67;118439.88;5034667;28;20029;-31
2022/12/03 04:06:07;;;;;;;39.80;14.93;;;;;;;-143.48;75.64;118439.88;5034343;28;20047;-31
2022/12/03 04:08:32;;;;;;;35.83;14.50;;;;;;;-143.48;75.35;118439.88;5035553;28;20043;-31
2022/12/03 04:13:41;;;;;;;33.60;14.35;;;;;;;-143.48;76.54;118439.88;5035681;28;20392;-31
2022/12/03 04:16:07;;;;;;;37.97;15.13;;;;;;;-143.48;76.25;118439.88;5035490;28;20026;-31
2022/12/03 04:18:41;;;;;;;33.70;14.75;;;;;;;-143.48;76.69;118439.88;5035300;28;20026;-31
2022/12/03 04:23:51;;;;;;;35.88;15.07;;;;;;;-143.48;75.01;118439.88;5036087;28;20380;-31
2022/12/03 04:29:00;;;;;;;34.03;14.63;;;;;;;-143.48;74.51;118439.88;5035893;28;20112;-31
2022/12/03 04:36:54;;;;;;;36.05;15.05;;;;;;;-143.48;75.21;118439.88;5035706;28;20566;-31
2022/12/03 04:39:20;;;;;;;38.90;15.13;;;;;;;-143.48;75.05;118439.88;5034899;28;20021;-31
2022/12/03 04:41:45;;;;;;;37.63;15.35;;;;;;;-143.48;75.28;118439.88;5035236;28;20064;-31
2022/12/03 04:46:54;;;;;;;39.13;15.02;;;;;;;-143.48;74.51;118439.88;5035388;28;20438;-31
2022/12/03 04:49:20;;;;;;;34.38;15.50;;;;;;;-143.48;75.14;118439.88;5034701;28;20108;-31
2022/12/03 04:51:45;;;;;;;34.17;14.40;;;;;;;-143.48;74.91;118439.88;5035257;28;20033;-31
2022/12/03 04:54:11;;;;;;;32.80;14.30;;;;;;;-143.48;74.88;118439.88;5033414;28;20476;-31
2022/12/03 04:56:36;;;;;;;35.05;14.73;;;;;;;-143.48;75.11;118439.88;5034676;28;20025;-31
2022/12/03 04:59:01;;;;;;;37.55;15.85;;;;;;;-143.48;75.09;118439.88;5032929;28;20021;-31
2022/12/03 05:01:26;;;;;;;37.47;15.38;;;;;;;-143.48;74.54;118439.88;5032481;28;20033;-32
2022/12/03 05:03:52;;;;;;;36.28;15.30;;;;;;;-143.48;74.96;118439.88;5032631;28;20116;-31
2022/12/03 05:06:17;;;;;;;33.40;14.43;;;;;;;-143.48;74.99;118439.88;5032661;28;20475;-31
2022/12/03 05:08:42;;;;;;;36.63;15.77;;;;;;;-143.48;74.81;118439.88;5032456;28;20025;-31
2022/12/03 05:11:08;;;;;;;32.47;14.60;;;;;;;-143.48;74.19;118439.88;5032292;28;20557;-31
2022/12/03 05:13:33;;;;;;;35.30;14.48;;;;;;;-143.48;74.51;118439.88;5030801;28;20017;-30
2022/12/03 05:15:58;;;;;;;43.20;15.93;;;;;;;-143.48;74.91;118439.88;5032101;28;20384;-31
2022/12/03 05:18:24;;;;;;;35.58;15.98;;;;;;;-143.48;75.12;118439.88;5032049;28;20044;-31
2022/12/03 05:20:49;;;;;;;39.53;15.75;;;;;;;-143.48;74.87;118439.88;5032022;28;20028;-31
2022/12/03 05:23:14;;;;;;;41.65;15.90;;;;;;;-143.48;75.29;118439.88;5032083;28;20049;-30
2022/12/03 05:25:40;;;;;;;36.13;15.30;;;;;;;-143.48;75.02;118439.88;5047692;28;20032;-31
2022/12/03 05:28:06;;;;;;;36.97;15.57;;;;;;;-143.48;75.20;118439.88;5034352;28;20350;-31
2022/12/03 05:30:32;;;;;;;36.50;14.88;;;;;;;-143.48;74.49;118439.88;5034030;28;20049;-31
2022/12/03 05:32:57;;;;;;;35.33;15.05;;;;;;;-143.48;74.14;118439.88;5033998;28;20040;-31
2022/12/03 05:35:23;;;;;;;36.38;15.55;;;;;;;-143.48;74.83;118439.88;5033896;28;20036;-31
2022/12/03 05:37:48;;;;;;;34.85;14.73;;;;;;;-143.48;74.48;118439.88;5032573;28;20108;-30
2022/12/03 05:40:14;;;;;;;36.00;15.15;;;;;;;-143.48;73.64;118439.88;5034106;28;20083;-30
2022/12/03 05:42:59;;;;;;;35.65;15.98;;;;;;;-143.48;74.14;118439.88;5034026;28;20445;-30
2022/12/03 05:45:32;;;;;;;33.40;15.45;;;;;;;-143.48;74.77;118439.88;5033971;28;20052;-31
2022/12/03 05:47:58;;;;;;;35.53;16.38;;;;;;;-143.48;74.76;118439.88;5033229;28;20048;-30
2022/12/03 05:50:27;;;;;;;36.10;15.25;;;;;;;-143.48;74.69;118439.88;5033564;28;20409;-30
2022/12/03 05:52:52;;;;;;;37.50;15.88;;;;;;;-143.48;74.75;118439.88;5033827;28;20406;-31
2022/12/03 05:55:18;;;;;;;34.67;15.18;;;;;;;-143.48;73.68;118439.88;5033569;28;20096;-31
2022/12/03 05:57:43;;;;;;;37.38;16.00;;;;;;;-143.48;73.98;118439.88;5033486;28;20025;-30
2022/12/03 06:00:15;;;;;;;37.05;15.25;;;;;;;-143.48;74.42;118439.88;5033505;28;20029;-30
2022/12/03 06:02:41;;;;;;;36.45;16.63;;;;;;;-143.48;74.29;118439.88;5033644;28;20087;-30
2022/12/03 06:05:08;;;;;;;36.72;15.63;;;;;;;-143.48;73.74;118439.88;5033634;28;20021;-30
2022/12/03 06:07:33;;;;;;;37.28;15.45;;;;;;;-143.48;74.80;118439.88;5033277;28;20025;-31
2022/12/03 06:09:59;;;;;;;40.28;17.10;;;;;;;-143.48;74.83;118439.88;5033459;28;20075;-30
2022/12/03 06:12:24;;;;;;;39.60;16.38;;;;;;;-143.48;75.05;118439.88;5033323;28;20025;-30
2022/12/03 06:14:49;;;;;;;38.05;16.08;;;;;;;-143.48;75.38;118439.88;5033227;28;20064;-31
2022/12/03 06:17:14;;;;;;;36.83;15.57;;;;;;;-143.48;75.55;118439.88;5033426;28;20417;-31
2022/12/03 06:19:40;;;;;;;42.63;16.98;;;;;;;-143.48;75.20;118439.88;5033074;28;20464;-31
2022/12/03 06:22:05;;;;;;;37.00;15.88;;;;;;;-143.48;74.59;118439.88;5033462;28;20018;-31
2022/12/03 06:24:30;;;;;;;40.40;16.45;;;;;;;-143.48;74.28;118439.88;5033314;28;20067;-31
2022/12/03 06:26:56;;;;;;;39.30;16.65;;;;;;;-143.48;74.22;118439.88;5033330;28;20025;-31
2022/12/03 06:29:21;;;;;;;36.00;16.02;;;;;;;-143.48;75.35;118439.88;5032922;28;20029;-31
2022/12/03 06:31:46;;;;;;;37.83;16.73;;;;;;;-143.48;75.27;118439.88;5032920;28;20091;-31
2022/12/03 06:34:11;;;;;;;38.90;16.63;;;;;;;-143.48;74.77;118439.88;5033451;28;20036;-31
2022/12/03 06:36:37;;;;;;;40.17;17.92;;;;;;;-143.48;74.87;118439.88;5032899;28;20293;-31
2022/12/03 06:39:02;;;;;;;41.13;17.35;;;;;;;-143.48;74.76;118439.88;5033180;28;20029;-31
2022/12/03 06:41:27;;;;;;;41.47;16.83;;;;;;;-143.48;74.60;118439.88;5033101;28;20029;-31
2022/12/03 06:43:53;;;;;;;41.75;17.73;;;;;;;-143.48;73.90;118439.88;5033167;28;20048;-31
2022/12/03 06:46:18;;;;;;;40.83;16.40;;;;;;;-143.48;74.24;118439.88;5048184;28;20027;-30
2022/12/03 06:48:43;;;;;;;42.13;18.20;;;;;;;-143.48;74.14;118439.88;5031588;28;20388;-31
2022/12/03 06:51:08;;;;;;;43.53;17.48;;;;;;;-143.48;74.84;118439.88;5031480;28;20022;-30
2022/12/03 06:53:34;;;;;;;38.90;17.48;;;;;;;-143.48;74.90;118439.88;5033240;28;20025;-30
2022/12/03 06:55:59;;;;;;;44.22;18.02;;;;;;;-143.48;74.65;118439.88;5033056;28;20104;-31
2022/12/03 06:58:25;;;;;;;40.55;17.63;;;;;;;-143.48;74.46;118439.88;5031482;28;20029;-31
2022/12/03 07:00:51;;;;;;;42.47;18.30;;;;;;;-143.48;73.77;118439.88;5035560;28;20029;-30
2022/12/03 07:03:16;;;;;;;46.08;18.48;;;;;;;-143.48;74.57;118439.88;5037026;28;20053;-30
2022/12/03 07:05:41;;;;;;;41.22;18.23;;;;;;;-143.48;74.52;118439.88;5036988;28;20018;-31
2022/12/03 07:08:06;;;;;;;46.60;18.20;;;;;;;-143.48;74.07;118439.88;5036753;28;20128;-31
2022/12/03 07:10:32;;;;;;;43.80;18.33;;;;;;;-143.48;75.06;118439.88;5036669;28;20041;-30
2022/12/03 07:12:57;;;;;;;41.50;17.90;;;;;;;-143.48;75.04;118439.88;5036492;28;20488;-30
2022/12/03 07:15:22;;;;;;;43.83;17.92;;;;;;;-143.48;75.22;118439.88;5036796;28;20057;-30
2022/12/03 07:17:48;;;;;;;39.55;17.45;;;;;;;-143.48;75.27;118439.88;5036504;28;20061;-31
2022/12/03 07:20:13;;;;;;;45.20;19.58;;;;;;;-143.48;75.34;118439.88;5036733;28;20091;-30
2022/12/03 07:22:38;;;;;;;41.55;18.02;;;;;;;-143.48;74.67;118439.88;5036376;28;20124;-31
2022/12/03 07:25:05;;;;;;;44.78;19.30;;;;;;;-143.48;74.33;118439.88;5036383;28;20045;-31
2022/12/03 07:27:30;;;;;;;43.78;18.77;;;;;;;-143.48;74.61;118439.88;5036306;28;20064;-30
2022/12/03 07:29:55;;;;;;;38.92;17.27;;;;;;;-143.48;74.27;118439.88;5036262;28;20049;-31
2022/12/03 07:32:20;;;;;;;45.65;19.17;;;;;;;-143.48;74.22;118439.88;5036255;28;20380;-31
2022/12/03 07:34:46;;;;;;;42.90;18.60;;;;;;;-143.48;73.61;118439.88;5036217;28;20029;-31
2022/12/03 07:37:12;;;;;;;46.13;18.27;;;;;;;-143.48;73.26;118439.88;5036303;28;20118;-31
2022/12/03 07:39:37;;;;;;;41.90;18.05;;;;;;;-143.48;73.98;118439.88;5036366;28;20025;-31
2022/12/03 07:42:02;;;;;;;38.60;17.92;;;;;;;-143.48;73.93;118439.88;5036108;28;20414;-31
2022/12/03 07:44:30;;;;;;;43.45;19.10;;;;;;;-143.48;73.03;118439.88;5036301;28;20219;-30
2022/12/03 07:46:55;;;;;;;43.30;18.27;;;;;;;-143.48;72.82;118439.88;5036336;28;20085;-31
2022/12/03 07:49:21;;;;;;;40.05;17.00;;;;;;;-143.48;71.66;118439.88;5036158;28;20025;-31
2022/12/03 07:51:52;;;;;;;41.25;17.63;;;;;;;-143.48;71.38;118439.88;5034663;28;20026;-31
2022/12/03 07:54:19;;;;;;;38.42;16.40;;;;;;;-143.48;70.91;118439.88;5036142;28;20132;-31
2022/12/03 07:56:44;;;;;;;42.38;17.35;;;;;;;-143.48;70.92;118439.88;5036606;28;20022;-32
2022/12/03 07:59:09;;;;;;;38.80;17.70;;;;;;;-143.48;70.19;118439.88;5034551;28;20491;-31
2022/12/03 08:01:34;;;;;;;38.97;17.42;;;;;;;-143.48;70.22;118439.88;5035787;28;20033;-31
2022/12/03 08:04:00;;;;;;;36.70;16.52;;;;;;;-143.48;70.26;118439.88;5035634;28;20385;-31
2022/12/03 08:06:25;;;;;;;36.38;16.52;;;;;;;-143.48;70.09;118439.88;5036048;28;20104;-31
2022/12/03 08:08:50;;;;;;;34.67;16.45;;;;;;;-143.48;70.41;118439.88;5035441;28;20025;-31
2022/12/03 08:11:16;;;;;;;34.95;16.15;;;;;;;-143.48;69.80;118439.88;5035134;28;20021;-31
2022/12/03 08:13:41;;;;;;;36.95;16.63;;;;;;;-143.48;69.94;118439.88;5035767;28;20447;-31
2022/12/03 08:16:19;;;;;;;36.10;16.20;;;;;;;-143.48;69.99;118439.88;5035473;28;20100;-31
2022/12/03 08:18:45;;;;;;;38.70;16.27;;;;;;;-143.48;69.96;118439.88;5035692;28;20029;-31
2022/12/03 08:21:13;;;;;;;36.63;15.35;;;;;;;-143.48;69.80;118439.88;5035601;28;20018;-30
2022/12/03 08:23:39;;;;;;;37.28;16.83;;;;;;;-143.48;69.93;118439.88;5033986;28;20083;-31
2022/12/03 08:26:31;;;;;;;37.78;16.27;;;;;;;-143.48;69.87;118439.88;5050709;28;20029;-38
2022/12/03 08:28:56;;;;;;;40.10;17.52;;;;;;;-143.48;70.13;118439.88;5033116;28;20037;-31
2022/12/03 08:31:24;;;;;;;39.15;16.90;;;;;;;-143.48;70.56;118439.88;5035156;28;20073;-31
2022/12/03 08:33:54;;;;;;;37.83;16.40;;;;;;;-143.48;69.48;118439.88;5050552;28;20072;-30
2022/12/03 08:36:31;;;;;;;33.47;14.80;;;;;;;-143.48;69.96;118439.88;5035352;28;20021;-30
2022/12/03 08:39:12;;;;;;;37.72;16.35;;;;;;;-143.48;69.56;118439.88;5035300;28;20472;-32
2022/12/03 08:44:31;;;;;;;34.10;16.55;;;;;;;-143.48;69.07;118439.88;5035642;28;20103;-31
2022/12/03 08:47:15;;;;;;;34.58;15.00;;;;;;;-143.48;68.82;118439.88;5035153;28;20415;-31
2022/12/03 08:49:41;;;;;;;36.22;15.02;;;;;;;-143.48;68.56;118439.88;5033445;28;20381;-31
2022/12/03 08:52:18;;;;;;;37.03;16.02;;;;;;;-143.48;69.14;118439.88;5033515;28;20029;-31
2022/12/03 08:54:50;;;;;;;37.70;16.40;;;;;;;-143.48;68.56;118439.88;5033479;28;20029;-31
2022/12/03 08:57:27;;;;;;;35.63;15.43;;;;;;;-143.48;69.04;118439.88;5033370;28;20409;-31
2022/12/03 09:00:05;;;;;;;34.47;14.48;;;;;;;-143.48;69.10;118439.88;5033209;28;20021;-31
2022/12/03 09:02:33;;;;;;;36.95;14.15;;;;;;;-143.48;68.16;118439.88;5033876;28;20059;-31
2022/12/03 09:05:12;;;;;;;40.63;15.40;;;;;;;-143.48;69.35;118439.88;5034496;28;20033;-31
2022/12/03 09:07:37;;;;;;;35.40;15.45;;;;;;;-143.48;69.22;118439.88;5034453;28;20457;-34
2022/12/03 09:10:02;;;;;;;35.83;16.08;;;;;;;-143.48;68.68;118439.88;5034308;28;20026;-31
2022/12/03 09:12:28;;;;;;;35.75;15.82;;;;;;;-143.48;68.66;118439.88;5034063;28;20033;-31
2022/12/03 09:14:53;;;;;;;37.75;16.00;;;;;;;-143.48;68.95;118439.88;5032308;28;20106;-31
2022/12/03 09:17:18;;;;;;;38.13;15.18;;;;;;;-143.48;68.62;118439.88;5032350;28;20029;-31
2022/12/03 09:19:44;;;;;;;36.15;15.50;;;;;;;-143.48;68.75;118439.88;5032195;28;20112;-31
2022/12/03 09:22:10;;;;;;;38.38;16.02;;;;;;;-143.48;69.27;118439.88;5031395;28;20048;-32
2022/12/03 09:24:36;;;;;;;37.75;15.95;;;;;;;-143.48;68.46;118439.88;5032172;28;20026;-31
2022/12/03 09:27:01;;;;;;;36.78;16.23;;;;;;;-143.48;68.80;118439.88;5031966;28;20379;-31
2022/12/03 09:29:26;;;;;;;36.85;15.70;;;;;;;-143.48;68.96;118439.88;5033740;28;20029;-32
2022/12/03 09:31:51;;;;;;;37.30;15.70;;;;;;;-143.48;67.82;118439.88;5033929;28;20121;-31
2022/12/03 09:34:17;;;;;;;36.35;16.45;;;;;;;-143.48;68.25;118439.88;5033856;28;20025;-31
2022/12/03 09:36:42;;;;;;;36.45;16.20;;;;;;;-143.48;69.81;118439.88;5034208;28;20127;-31
2022/12/03 09:39:07;;;;;;;43.03;16.33;;;;;;;-143.48;69.48;118439.88;5034149;28;20435;-31
2022/12/03 09:41:33;;;;;;;40.33;17.63;;;;;;;-143.48;69.83;118439.88;5034065;28;20504;-31
2022/12/03 09:43:58;;;;;;;38.95;16.27;;;;;;;-143.48;69.25;118439.88;5033786;28;20049;-31
2022/12/03 09:46:23;;;;;;;35.70;16.40;;;;;;;-143.48;69.86;118439.88;5033965;28;20021;-31
2022/12/03 09:48:49;;;;;;;41.53;16.77;;;;;;;-143.48;69.94;118439.88;5033652;28;20017;-31
2022/12/03 09:51:14;;;;;;;40.80;16.55;;;;;;;-143.48;70.30;118439.88;5033288;28;20113;-31
2022/12/03 09:53:40;;;;;;;43.90;17.35;;;;;;;-143.48;70.49;118439.88;5032931;28;20036;-31
2022/12/03 09:56:13;;;;;;;43.97;18.20;;;;;;;-143.48;70.19;118439.88;5032959;28;20507;-31
2022/12/03 09:58:40;;;;;;;43.38;17.27;;;;;;;-143.48;71.10;118439.88;5048157;28;20029;-31
2022/12/03 10:01:12;;;;;;;50.33;19.10;;;;;;;-143.48;70.87;118439.88;5032939;28;20118;-31
2022/12/03 10:03:42;;;;;;;48.92;18.55;;;;;;;-143.48;70.82;118439.88;5032907;28;20132;-31
2022/12/03 10:06:13;;;;;;;49.85;19.88;;;;;;;-143.48;71.00;118439.88;5032840;28;20047;-31
2022/12/03 10:08:38;;;;;;;47.72;19.00;;;;;;;-143.48;71.31;118439.88;5033234;28;20040;-31
2022/12/03 10:11:03;;;;;;;50.45;18.55;;;;;;;-143.48;70.95;118439.88;5033561;28;20025;-30
2022/12/03 10:13:30;;;;;;;48.97;19.42;;;;;;;-143.48;72.06;118439.88;5033464;28;20028;-31
2022/12/03 10:15:59;;;;;;;44.67;18.48;;;;;;;-143.48;72.11;118439.88;5033534;28;20512;-31
2022/12/03 10:18:27;;;;;;;47.85;19.33;;;;;;;-143.48;71.58;118439.88;5033222;28;20036;-31
2022/12/03 10:20:53;;;;;;;51.75;19.75;;;;;;;-143.48;71.29;118439.88;5033121;28;20025;-31
2022/12/03 10:23:20;;;;;;;49.83;18.33;;;;;;;-143.48;71.53;118439.88;5033283;28;20483;-32
2022/12/03 10:26:02;;;;;;;55.70;18.15;;;;;;;-143.48;71.61;118439.88;5033059;28;20025;-31
2022/12/03 10:28:33;;;;;;;52.83;18.53;;;;;;;-143.48;70.94;118439.88;5033003;28;20030;-31
2022/12/03 10:31:01;;;;;;;56.45;19.13;;;;;;;-143.48;71.55;118439.88;5032796;28;20046;-32
2022/12/03 10:33:43;;;;;;;56.33;18.90;;;;;;;-143.48;71.49;118439.88;5032968;28;20481;-31
2022/12/03 10:36:35;;;;;;;46.83;17.85;;;;;;;-143.48;71.29;118439.88;5032959;28;20104;-31
2022/12/03 10:39:12;;;;;;;53.13;19.33;;;;;;;-143.48;71.22;118439.88;5032163;28;20040;-31
2022/12/03 10:41:40;;;;;;;52.88;19.45;;;;;;;-143.48;72.47;118439.88;5032936;28;20025;-32
2022/12/03 10:44:18;;;;;;;51.15;19.52;;;;;;;-143.48;71.76;118439.88;5033227;28;20030;-31
2022/12/03 10:46:44;;;;;;;49.10;18.23;;;;;;;-143.48;71.76;118439.88;5032939;28;20048;-31
2022/12/03 10:49:18;;;;;;;51.97;19.08;;;;;;;-143.48;71.67;118439.88;5032514;28;20072;-31
2022/12/03 10:51:46;;;;;;;56.70;20.42;;;;;;;-143.48;71.41;118439.88;5047376;28;20048;-31
2022/12/03 10:54:23;;;;;;;52.05;18.77;;;;;;;-143.48;71.58;118439.88;5032298;28;20033;-31
2022/12/03 10:56:50;;;;;;;54.10;18.90;;;;;;;-143.48;72.32;118439.88;5032102;28;20036;-31
2022/12/03 10:59:19;;;;;;;55.33;20.05;;;;;;;-143.48;73.31;118439.88;5030792;28;20113;-31
2022/12/03 11:01:45;;;;;;;49.47;18.65;;;;;;;-143.48;73.44;118439.88;5032092;28;20029;-31
2022/12/03 11:04:37;;;;;;;55.40;19.65;;;;;;;-143.48;73.34;118439.88;5032291;28;20038;-31
2022/12/03 11:07:10;;;;;;;58.15;19.63;;;;;;;-143.48;73.42;118439.88;5032390;28;20087;-31
2022/12/03 11:09:36;;;;;;;51.17;18.23;;;;;;;-143.48;73.01;118439.88;5032565;28;20117;-31
2022/12/03 11:12:07;;;;;;;48.45;17.25;;;;;;;-143.48;72.46;118439.88;5032877;28;20108;-31
2022/12/03 11:14:47;;;;;;;48.40;17.52;;;;;;;-143.48;72.04;118439.88;5031438;28;20456;-31